sensor_id;sensor_type;location;lat;lon;timestamp;P1;durP1;ratioP1;P2;durP2;ratioP2
21480;SDS011;10902;48.158;8.634;2023-05-20T00:00:32;10.55;;;6.82;;
21480;SDS011;10902;48.158;8.634;2023-05-20T00:03:18;11.48;;;6.72;;
21480;SDS011;10902;48.158;8.634;2023-05-20T00:06:04;9.50;;;6.60;;
21480;SDS011;10902;48.158;8.634;2023-05-20T00:08:50;12.38;;;7.10;;
21480;SDS011;10902;48.158;8.634;2023-05-20T00:11:35;10.88;;;6.43;;
21480;SDS011;10902;48.158;8.634;2023-05-20T00:14:21;13.18;;;6.63;;
21480;SDS011;10902;48.158;8.634;2023-05-20T00:17:07;11.60;;;6.90;;
21480;SDS011;10902;48.158;8.634;2023-05-20T00:19:52;10.70;;;6.43;;
21480;SDS011;10902;48.158;8.634;2023-05-20T00:22:38;13.18;;;7.47;;
21480;SDS011;10902;48.158;8.634;2023-05-20T00:25:24;10.98;;;7.10;;
21480;SDS011;10902;48.158;8.634;2023-05-20T00:28:10;14.68;;;8.23;;
21480;SDS011;10902;48.158;8.634;2023-05-20T00:30:55;10.95;;;7.47;;
21480;SDS011;10902;48.158;8.634;2023-05-20T00:33:41;13.85;;;7.72;;
21480;SDS011;10902;48.158;8.634;2023-05-20T00:36:26;12.70;;;8.00;;
21480;SDS011;10902;48.158;8.634;2023-05-20T00:39:12;13.57;;;7.72;;
21480;SDS011;10902;48.158;8.634;2023-05-20T00:41:57;16.27;;;7.90;;
21480;SDS011;10902;48.158;8.634;2023-05-20T00:44:46;12.50;;;8.52;;
21480;SDS011;10902;48.158;8.634;2023-05-20T00:47:32;11.95;;;7.32;;
21480;SDS011;10902;48.158;8.634;2023-05-20T00:50:20;14.05;;;7.00;;
21480;SDS011;10902;48.158;8.634;2023-05-20T00:53:06;10.35;;;7.03;;
21480;SDS011;10902;48.158;8.634;2023-05-20T00:55:52;11.43;;;7.18;;
21480;SDS011;10902;48.158;8.634;2023-05-20T00:58:38;13.05;;;8.35;;
21480;SDS011;10902;48.158;8.634;2023-05-20T01:01:24;11.00;;;7.72;;
21480;SDS011;10902;48.158;8.634;2023-05-20T01:04:10;13.50;;;6.78;;
21480;SDS011;10902;48.158;8.634;2023-05-20T01:06:56;12.18;;;7.32;;
21480;SDS011;10902;48.158;8.634;2023-05-20T01:09:43;13.25;;;7.80;;
21480;SDS011;10902;48.158;8.634;2023-05-20T01:12:42;11.45;;;7.30;;
21480;SDS011;10902;48.158;8.634;2023-05-20T01:15:32;11.38;;;7.38;;
21480;SDS011;10902;48.158;8.634;2023-05-20T01:18:19;10.40;;;7.78;;
21480;SDS011;10902;48.158;8.634;2023-05-20T01:21:06;11.43;;;7.53;;
21480;SDS011;10902;48.158;8.634;2023-05-20T01:23:54;13.68;;;7.30;;
21480;SDS011;10902;48.158;8.634;2023-05-20T01:26:40;13.43;;;8.02;;
21480;SDS011;10902;48.158;8.634;2023-05-20T01:29:26;12.43;;;7.70;;
21480;SDS011;10902;48.158;8.634;2023-05-20T01:32:14;14.05;;;7.97;;
21480;SDS011;10902;48.158;8.634;2023-05-20T01:35:09;12.80;;;7.55;;
21480;SDS011;10902;48.158;8.634;2023-05-20T01:37:55;12.02;;;8.00;;
21480;SDS011;10902;48.158;8.634;2023-05-20T01:40:42;14.05;;;7.72;;
21480;SDS011;10902;48.158;8.634;2023-05-20T01:43:28;13.60;;;8.45;;
21480;SDS011;10902;48.158;8.634;2023-05-20T01:46:14;20.58;;;8.45;;
21480;SDS011;10902;48.158;8.634;2023-05-20T01:49:00;12.02;;;7.28;;
21480;SDS011;10902;48.158;8.634;2023-05-20T01:51:46;12.68;;;7.25;;
21480;SDS011;10902;48.158;8.634;2023-05-20T01:54:31;11.43;;;7.18;;
21480;SDS011;10902;48.158;8.634;2023-05-20T01:57:17;11.65;;;7.45;;
21480;SDS011;10902;48.158;8.634;2023-05-20T02:00:04;12.43;;;7.20;;
21480;SDS011;10902;48.158;8.634;2023-05-20T02:02:50;9.73;;;7.47;;
21480;SDS011;10902;48.158;8.634;2023-05-20T02:05:36;12.02;;;7.03;;
21480;SDS011;10902;48.158;8.634;2023-05-20T02:11:46;13.18;;;6.85;;
21480;SDS011;10902;48.158;8.634;2023-05-20T02:14:31;10.43;;;6.38;;
21480;SDS011;10902;48.158;8.634;2023-05-20T02:17:17;11.85;;;6.60;;
21480;SDS011;10902;48.158;8.634;2023-05-20T02:20:02;10.20;;;6.47;;
21480;SDS011;10902;48.158;8.634;2023-05-20T02:22:50;11.02;;;6.30;;
21480;SDS011;10902;48.158;8.634;2023-05-20T02:25:36;8.73;;;6.28;;
21480;SDS011;10902;48.158;8.634;2023-05-20T02:28:21;9.73;;;6.03;;
21480;SDS011;10902;48.158;8.634;2023-05-20T02:31:07;11.77;;;6.60;;
21480;SDS011;10902;48.158;8.634;2023-05-20T02:33:52;9.93;;;6.00;;
21480;SDS011;10902;48.158;8.634;2023-05-20T02:36:38;12.38;;;6.50;;
21480;SDS011;10902;48.158;8.634;2023-05-20T02:39:23;9.00;;;5.47;;
21480;SDS011;10902;48.158;8.634;2023-05-20T02:42:09;8.55;;;5.82;;
21480;SDS011;10902;48.158;8.634;2023-05-20T02:44:55;8.82;;;6.13;;
21480;SDS011;10902;48.158;8.634;2023-05-20T02:47:42;11.15;;;6.50;;
21480;SDS011;10902;48.158;8.634;2023-05-20T02:50:28;10.70;;;6.25;;
21480;SDS011;10902;48.158;8.634;2023-05-20T02:53:13;12.52;;;6.28;;
21480;SDS011;10902;48.158;8.634;2023-05-20T02:55:59;9.05;;;6.25;;
21480;SDS011;10902;48.158;8.634;2023-05-20T02:58:45;9.85;;;6.22;;
21480;SDS011;10902;48.158;8.634;2023-05-20T03:01:31;10.70;;;6.10;;
21480;SDS011;10902;48.158;8.634;2023-05-20T03:04:19;9.18;;;6.05;;
21480;SDS011;10902;48.158;8.634;2023-05-20T03:07:05;11.77;;;6.28;;
21480;SDS011;10902;48.158;8.634;2023-05-20T03:09:51;9.63;;;6.35;;
21480;SDS011;10902;48.158;8.634;2023-05-20T03:12:37;9.95;;;6.63;;
21480;SDS011;10902;48.158;8.634;2023-05-20T03:15:22;10.23;;;6.30;;
21480;SDS011;10902;48.158;8.634;2023-05-20T03:18:08;9.57;;;6.38;;
21480;SDS011;10902;48.158;8.634;2023-05-20T03:20:53;9.15;;;6.90;;
21480;SDS011;10902;48.158;8.634;2023-05-20T03:23:39;10.93;;;6.47;;
21480;SDS011;10902;48.158;8.634;2023-05-20T03:26:24;9.80;;;6.45;;
21480;SDS011;10902;48.158;8.634;2023-05-20T03:29:10;11.35;;;6.85;;
21480;SDS011;10902;48.158;8.634;2023-05-20T03:31:56;10.27;;;6.95;;
21480;SDS011;10902;48.158;8.634;2023-05-20T03:34:41;9.82;;;6.88;;
21480;SDS011;10902;48.158;8.634;2023-05-20T03:37:27;13.07;;;7.38;;
21480;SDS011;10902;48.158;8.634;2023-05-20T03:40:12;9.63;;;7.07;;
21480;SDS011;10902;48.158;8.634;2023-05-20T03:42:58;11.55;;;6.95;;
21480;SDS011;10902;48.158;8.634;2023-05-20T03:45:43;9.18;;;6.70;;
21480;SDS011;10902;48.158;8.634;2023-05-20T03:48:29;9.77;;;7.43;;
21480;SDS011;10902;48.158;8.634;2023-05-20T03:51:15;11.77;;;7.10;;
21480;SDS011;10902;48.158;8.634;2023-05-20T03:54:00;10.63;;;6.82;;
21480;SDS011;10902;48.158;8.634;2023-05-20T03:56:46;11.60;;;8.50;;
21480;SDS011;10902;48.158;8.634;2023-05-20T03:59:33;10.57;;;8.40;;
21480;SDS011;10902;48.158;8.634;2023-05-20T04:02:18;11.32;;;8.43;;
21480;SDS011;10902;48.158;8.634;2023-05-20T04:05:05;12.52;;;8.02;;
21480;SDS011;10902;48.158;8.634;2023-05-20T04:07:52;11.27;;;7.65;;
21480;SDS011;10902;48.158;8.634;2023-05-20T04:10:41;12.05;;;7.40;;
21480;SDS011;10902;48.158;8.634;2023-05-20T04:13:27;11.88;;;7.53;;
21480;SDS011;10902;48.158;8.634;2023-05-20T04:16:12;11.65;;;7.15;;
21480;SDS011;10902;48.158;8.634;2023-05-20T04:18:58;12.52;;;7.65;;
21480;SDS011;10902;48.158;8.634;2023-05-20T04:21:44;10.35;;;7.75;;
21480;SDS011;10902;48.158;8.634;2023-05-20T04:24:30;11.95;;;7.47;;
21480;SDS011;10902;48.158;8.634;2023-05-20T04:27:16;10.93;;;6.95;;
21480;SDS011;10902;48.158;8.634;2023-05-20T04:30:02;13.45;;;8.23;;
21480;SDS011;10902;48.158;8.634;2023-05-20T04:32:48;10.85;;;7.53;;
21480;SDS011;10902;48.158;8.634;2023-05-20T04:35:34;10.80;;;7.47;;
21480;SDS011;10902;48.158;8.634;2023-05-20T04:38:21;9.32;;;6.75;;
21480;SDS011;10902;48.158;8.634;2023-05-20T04:41:07;9.75;;;7.25;;
21480;SDS011;10902;48.158;8.634;2023-05-20T04:43:53;11.73;;;7.15;;
21480;SDS011;10902;48.158;8.634;2023-05-20T04:46:43;9.52;;;7.30;;
21480;SDS011;10902;48.158;8.634;2023-05-20T04:49:30;10.93;;;7.43;;
21480;SDS011;10902;48.158;8.634;2023-05-20T04:52:15;10.38;;;7.55;;
21480;SDS011;10902;48.158;8.634;2023-05-20T04:55:02;9.70;;;6.65;;
21480;SDS011;10902;48.158;8.634;2023-05-20T04:57:47;9.25;;;7.13;;
21480;SDS011;10902;48.158;8.634;2023-05-20T05:00:33;10.80;;;6.70;;
21480;SDS011;10902;48.158;8.634;2023-05-20T05:03:19;8.35;;;6.65;;
21480;SDS011;10902;48.158;8.634;2023-05-20T05:06:05;11.13;;;7.18;;
21480;SDS011;10902;48.158;8.634;2023-05-20T05:08:50;12.82;;;7.35;;
21480;SDS011;10902;48.158;8.634;2023-05-20T05:11:36;10.15;;;6.80;;
21480;SDS011;10902;48.158;8.634;2023-05-20T05:14:23;9.90;;;6.88;;
21480;SDS011;10902;48.158;8.634;2023-05-20T05:17:08;9.52;;;6.95;;
21480;SDS011;10902;48.158;8.634;2023-05-20T05:19:54;11.52;;;6.93;;
21480;SDS011;10902;48.158;8.634;2023-05-20T05:22:39;10.00;;;7.70;;
21480;SDS011;10902;48.158;8.634;2023-05-20T05:25:25;10.00;;;7.55;;
21480;SDS011;10902;48.158;8.634;2023-05-20T05:28:11;9.45;;;6.78;;
21480;SDS011;10902;48.158;8.634;2023-05-20T05:30:56;9.05;;;7.13;;
21480;SDS011;10902;48.158;8.634;2023-05-20T05:33:42;10.82;;;7.60;;
21480;SDS011;10902;48.158;8.634;2023-05-20T05:36:27;8.73;;;7.28;;
21480;SDS011;10902;48.158;8.634;2023-05-20T05:39:13;11.65;;;7.50;;
21480;SDS011;10902;48.158;8.634;2023-05-20T05:41:58;14.13;;;9.18;;
21480;SDS011;10902;48.158;8.634;2023-05-20T05:44:44;12.68;;;9.00;;
21480;SDS011;10902;48.158;8.634;2023-05-20T05:47:30;12.52;;;10.25;;
21480;SDS011;10902;48.158;8.634;2023-05-20T05:50:16;11.52;;;8.77;;
21480;SDS011;10902;48.158;8.634;2023-05-20T05:53:02;11.05;;;8.40;;
21480;SDS011;10902;48.158;8.634;2023-05-20T05:55:47;11.70;;;8.65;;
21480;SDS011;10902;48.158;8.634;2023-05-20T05:58:33;11.60;;;9.13;;
21480;SDS011;10902;48.158;8.634;2023-05-20T06:01:19;11.48;;;9.13;;
21480;SDS011;10902;48.158;8.634;2023-05-20T06:04:04;12.02;;;8.57;;
21480;SDS011;10902;48.158;8.634;2023-05-20T06:06:50;12.25;;;7.68;;
21480;SDS011;10902;48.158;8.634;2023-05-20T06:09:36;9.35;;;7.70;;
21480;SDS011;10902;48.158;8.634;2023-05-20T06:12:22;11.52;;;8.52;;
21480;SDS011;10902;48.158;8.634;2023-05-20T06:15:08;10.95;;;8.48;;
21480;SDS011;10902;48.158;8.634;2023-05-20T06:17:54;13.18;;;9.80;;
21480;SDS011;10902;48.158;8.634;2023-05-20T06:20:39;14.63;;;9.18;;
21480;SDS011;10902;48.158;8.634;2023-05-20T06:23:25;10.13;;;8.48;;
21480;SDS011;10902;48.158;8.634;2023-05-20T06:26:10;12.82;;;9.35;;
21480;SDS011;10902;48.158;8.634;2023-05-20T06:28:56;11.55;;;9.05;;
21480;SDS011;10902;48.158;8.634;2023-05-20T06:31:42;12.18;;;9.20;;
21480;SDS011;10902;48.158;8.634;2023-05-20T06:34:27;11.00;;;8.00;;
21480;SDS011;10902;48.158;8.634;2023-05-20T06:37:13;9.60;;;7.75;;
21480;SDS011;10902;48.158;8.634;2023-05-20T06:39:58;11.70;;;7.97;;
21480;SDS011;10902;48.158;8.634;2023-05-20T06:42:44;9.82;;;7.40;;
21480;SDS011;10902;48.158;8.634;2023-05-20T06:45:29;10.70;;;7.70;;
21480;SDS011;10902;48.158;8.634;2023-05-20T06:48:15;11.98;;;8.00;;
21480;SDS011;10902;48.158;8.634;2023-05-20T06:51:00;10.93;;;8.25;;
21480;SDS011;10902;48.158;8.634;2023-05-20T06:53:46;9.13;;;7.07;;
21480;SDS011;10902;48.158;8.634;2023-05-20T06:56:31;9.55;;;8.00;;
21480;SDS011;10902;48.158;8.634;2023-05-20T06:59:17;9.80;;;8.02;;
21480;SDS011;10902;48.158;8.634;2023-05-20T07:02:03;17.80;;;15.43;;
21480;SDS011;10902;48.158;8.634;2023-05-20T07:04:49;16.00;;;14.30;;
21480;SDS011;10902;48.158;8.634;2023-05-20T07:07:34;12.13;;;9.38;;
21480;SDS011;10902;48.158;8.634;2023-05-20T07:10:20;12.95;;;10.32;;
21480;SDS011;10902;48.158;8.634;2023-05-20T07:13:05;12.90;;;10.68;;
21480;SDS011;10902;48.158;8.634;2023-05-20T07:15:51;9.50;;;8.38;;
21480;SDS011;10902;48.158;8.634;2023-05-20T07:18:36;12.23;;;8.43;;
21480;SDS011;10902;48.158;8.634;2023-05-20T07:21:22;11.18;;;7.80;;
21480;SDS011;10902;48.158;8.634;2023-05-20T07:24:07;10.25;;;7.72;;
21480;SDS011;10902;48.158;8.634;2023-05-20T07:26:53;12.10;;;7.70;;
21480;SDS011;10902;48.158;8.634;2023-05-20T07:29:39;10.45;;;8.25;;
21480;SDS011;10902;48.158;8.634;2023-05-20T07:32:24;11.57;;;7.82;;
21480;SDS011;10902;48.158;8.634;2023-05-20T07:35:10;9.75;;;7.50;;
21480;SDS011;10902;48.158;8.634;2023-05-20T07:37:56;9.80;;;7.40;;
21480;SDS011;10902;48.158;8.634;2023-05-20T07:40:41;9.20;;;6.88;;
21480;SDS011;10902;48.158;8.634;2023-05-20T07:43:27;10.32;;;7.88;;
21480;SDS011;10902;48.158;8.634;2023-05-20T07:46:13;9.88;;;7.00;;
21480;SDS011;10902;48.158;8.634;2023-05-20T07:49:00;9.93;;;6.78;;
21480;SDS011;10902;48.158;8.634;2023-05-20T07:51:45;11.18;;;7.55;;
21480;SDS011;10902;48.158;8.634;2023-05-20T07:54:31;11.32;;;7.65;;
21480;SDS011;10902;48.158;8.634;2023-05-20T07:57:18;9.25;;;7.10;;
21480;SDS011;10902;48.158;8.634;2023-05-20T08:00:03;10.63;;;6.80;;
21480;SDS011;10902;48.158;8.634;2023-05-20T08:02:50;11.13;;;7.25;;
21480;SDS011;10902;48.158;8.634;2023-05-20T08:05:39;8.25;;;6.68;;
21480;SDS011;10902;48.158;8.634;2023-05-20T08:08:25;10.98;;;7.43;;
21480;SDS011;10902;48.158;8.634;2023-05-20T08:11:13;9.00;;;6.80;;
21480;SDS011;10902;48.158;8.634;2023-05-20T08:13:58;9.38;;;6.85;;
21480;SDS011;10902;48.158;8.634;2023-05-20T08:16:44;8.57;;;7.07;;
21480;SDS011;10902;48.158;8.634;2023-05-20T08:19:29;9.00;;;6.13;;
21480;SDS011;10902;48.158;8.634;2023-05-20T08:22:15;10.38;;;6.82;;
21480;SDS011;10902;48.158;8.634;2023-05-20T08:25:01;8.65;;;6.82;;
21480;SDS011;10902;48.158;8.634;2023-05-20T08:27:46;9.82;;;6.55;;
21480;SDS011;10902;48.158;8.634;2023-05-20T08:30:32;8.93;;;6.80;;
21480;SDS011;10902;48.158;8.634;2023-05-20T08:33:18;9.43;;;6.68;;
21480;SDS011;10902;48.158;8.634;2023-05-20T08:36:06;8.38;;;6.60;;
21480;SDS011;10902;48.158;8.634;2023-05-20T08:38:52;8.88;;;6.95;;
21480;SDS011;10902;48.158;8.634;2023-05-20T08:41:37;9.02;;;6.35;;
21480;SDS011;10902;48.158;8.634;2023-05-20T08:44:23;9.48;;;6.57;;
21480;SDS011;10902;48.158;8.634;2023-05-20T08:47:11;8.32;;;6.55;;
21480;SDS011;10902;48.158;8.634;2023-05-20T08:49:57;11.27;;;6.88;;
21480;SDS011;10902;48.158;8.634;2023-05-20T08:52:43;7.68;;;5.50;;
21480;SDS011;10902;48.158;8.634;2023-05-20T08:55:37;8.68;;;6.38;;
21480;SDS011;10902;48.158;8.634;2023-05-20T08:58:30;9.60;;;6.38;;
21480;SDS011;10902;48.158;8.634;2023-05-20T09:01:16;10.32;;;6.15;;
21480;SDS011;10902;48.158;8.634;2023-05-20T09:04:02;8.95;;;7.28;;
21480;SDS011;10902;48.158;8.634;2023-05-20T09:06:49;9.63;;;6.85;;
21480;SDS011;10902;48.158;8.634;2023-05-20T09:09:35;9.73;;;7.10;;
21480;SDS011;10902;48.158;8.634;2023-05-20T09:12:20;10.63;;;7.75;;
21480;SDS011;10902;48.158;8.634;2023-05-20T09:15:06;8.48;;;6.53;;
21480;SDS011;10902;48.158;8.634;2023-05-20T09:17:52;10.50;;;6.68;;
21480;SDS011;10902;48.158;8.634;2023-05-20T09:20:38;10.20;;;6.97;;
21480;SDS011;10902;48.158;8.634;2023-05-20T09:23:25;10.00;;;6.07;;
21480;SDS011;10902;48.158;8.634;2023-05-20T09:26:14;8.65;;;5.93;;
21480;SDS011;10902;48.158;8.634;2023-05-20T09:29:02;8.93;;;6.60;;
21480;SDS011;10902;48.158;8.634;2023-05-20T09:31:48;9.13;;;6.57;;
21480;SDS011;10902;48.158;8.634;2023-05-20T09:34:34;9.35;;;6.50;;
21480;SDS011;10902;48.158;8.634;2023-05-20T09:37:20;9.75;;;6.97;;
21480;SDS011;10902;48.158;8.634;2023-05-20T09:40:07;10.50;;;6.85;;
21480;SDS011;10902;48.158;8.634;2023-05-20T09:42:55;9.65;;;6.90;;
21480;SDS011;10902;48.158;8.634;2023-05-20T09:45:46;8.60;;;6.70;;
21480;SDS011;10902;48.158;8.634;2023-05-20T09:48:34;9.85;;;6.30;;
21480;SDS011;10902;48.158;8.634;2023-05-20T09:51:21;8.75;;;6.68;;
21480;SDS011;10902;48.158;8.634;2023-05-20T09:54:08;10.88;;;7.00;;
21480;SDS011;10902;48.158;8.634;2023-05-20T09:56:56;9.10;;;6.65;;
21480;SDS011;10902;48.158;8.634;2023-05-20T09:59:43;9.32;;;6.90;;
21480;SDS011;10902;48.158;8.634;2023-05-20T10:02:32;9.00;;;6.85;;
21480;SDS011;10902;48.158;8.634;2023-05-20T10:05:21;8.95;;;7.30;;
21480;SDS011;10902;48.158;8.634;2023-05-20T10:08:17;8.85;;;6.68;;
21480;SDS011;10902;48.158;8.634;2023-05-20T10:14:32;9.68;;;6.63;;
21480;SDS011;10902;48.158;8.634;2023-05-20T10:20:20;8.05;;;6.68;;
21480;SDS011;10902;48.158;8.634;2023-05-20T10:23:06;9.73;;;7.60;;
21480;SDS011;10902;48.158;8.634;2023-05-20T10:25:52;10.98;;;7.03;;
21480;SDS011;10902;48.158;8.634;2023-05-20T10:28:39;10.32;;;7.25;;
21480;SDS011;10902;48.158;8.634;2023-05-20T10:31:25;7.95;;;6.57;;
21480;SDS011;10902;48.158;8.634;2023-05-20T10:34:15;8.77;;;6.20;;
21480;SDS011;10902;48.158;8.634;2023-05-20T10:37:04;8.68;;;6.78;;
21480;SDS011;10902;48.158;8.634;2023-05-20T10:39:50;8.65;;;6.22;;
21480;SDS011;10902;48.158;8.634;2023-05-20T10:42:36;8.93;;;6.93;;
21480;SDS011;10902;48.158;8.634;2023-05-20T10:45:28;9.50;;;7.30;;
21480;SDS011;10902;48.158;8.634;2023-05-20T10:51:13;8.52;;;6.38;;
21480;SDS011;10902;48.158;8.634;2023-05-20T10:53:58;8.63;;;7.15;;
21480;SDS011;10902;48.158;8.634;2023-05-20T10:56:50;9.27;;;6.85;;
21480;SDS011;10902;48.158;8.634;2023-05-20T10:59:37;7.70;;;6.50;;
21480;SDS011;10902;48.158;8.634;2023-05-20T11:02:23;7.93;;;6.32;;
21480;SDS011;10902;48.158;8.634;2023-05-20T11:05:12;8.55;;;6.68;;
21480;SDS011;10902;48.158;8.634;2023-05-20T11:08:01;7.78;;;6.35;;
21480;SDS011;10902;48.158;8.634;2023-05-20T11:10:47;9.02;;;6.75;;
21480;SDS011;10902;48.158;8.634;2023-05-20T11:13:33;8.73;;;7.03;;
21480;SDS011;10902;48.158;8.634;2023-05-20T11:16:19;7.93;;;6.68;;
21480;SDS011;10902;48.158;8.634;2023-05-20T11:19:15;6.93;;;5.72;;
21480;SDS011;10902;48.158;8.634;2023-05-20T11:22:02;7.97;;;6.18;;
21480;SDS011;10902;48.158;8.634;2023-05-20T11:24:51;9.10;;;6.13;;
21480;SDS011;10902;48.158;8.634;2023-05-20T11:27:39;8.85;;;6.57;;
21480;SDS011;10902;48.158;8.634;2023-05-20T11:30:25;8.32;;;6.72;;
21480;SDS011;10902;48.158;8.634;2023-05-20T11:33:11;9.13;;;6.22;;
21480;SDS011;10902;48.158;8.634;2023-05-20T11:35:57;7.43;;;6.25;;
21480;SDS011;10902;48.158;8.634;2023-05-20T11:38:44;7.60;;;5.85;;
21480;SDS011;10902;48.158;8.634;2023-05-20T11:41:31;7.57;;;5.85;;
21480;SDS011;10902;48.158;8.634;2023-05-20T11:44:18;6.72;;;5.38;;
21480;SDS011;10902;48.158;8.634;2023-05-20T11:47:04;6.55;;;5.40;;
21480;SDS011;10902;48.158;8.634;2023-05-20T11:49:50;6.45;;;5.03;;
21480;SDS011;10902;48.158;8.634;2023-05-20T11:52:36;6.80;;;5.53;;
21480;SDS011;10902;48.158;8.634;2023-05-20T11:55:21;6.75;;;5.60;;
21480;SDS011;10902;48.158;8.634;2023-05-20T11:58:07;8.20;;;5.82;;
21480;SDS011;10902;48.158;8.634;2023-05-20T12:00:52;6.95;;;5.82;;
21480;SDS011;10902;48.158;8.634;2023-05-20T12:03:38;6.90;;;5.40;;
21480;SDS011;10902;48.158;8.634;2023-05-20T12:06:23;8.98;;;6.25;;
21480;SDS011;10902;48.158;8.634;2023-05-20T12:09:09;7.60;;;5.60;;
21480;SDS011;10902;48.158;8.634;2023-05-20T12:11:55;7.75;;;5.63;;
21480;SDS011;10902;48.158;8.634;2023-05-20T12:14:41;8.35;;;5.60;;
21480;SDS011;10902;48.158;8.634;2023-05-20T12:17:26;7.60;;;5.70;;
21480;SDS011;10902;48.158;8.634;2023-05-20T12:20:12;6.60;;;5.50;;
21480;SDS011;10902;48.158;8.634;2023-05-20T12:22:59;7.32;;;5.30;;
21480;SDS011;10902;48.158;8.634;2023-05-20T12:25:45;6.95;;;5.00;;
21480;SDS011;10902;48.158;8.634;2023-05-20T12:28:33;6.70;;;5.57;;
21480;SDS011;10902;48.158;8.634;2023-05-20T12:31:19;6.60;;;5.82;;
21480;SDS011;10902;48.158;8.634;2023-05-20T12:34:04;7.20;;;5.47;;
21480;SDS011;10902;48.158;8.634;2023-05-20T12:36:50;7.68;;;5.63;;
21480;SDS011;10902;48.158;8.634;2023-05-20T12:39:36;7.93;;;5.45;;
21480;SDS011;10902;48.158;8.634;2023-05-20T12:42:21;7.38;;;5.75;;
21480;SDS011;10902;48.158;8.634;2023-05-20T12:45:07;7.85;;;6.32;;
21480;SDS011;10902;48.158;8.634;2023-05-20T12:47:54;8.35;;;6.05;;
21480;SDS011;10902;48.158;8.634;2023-05-20T12:50:41;7.68;;;5.68;;
21480;SDS011;10902;48.158;8.634;2023-05-20T12:53:26;7.32;;;5.30;;
21480;SDS011;10902;48.158;8.634;2023-05-20T12:56:12;7.30;;;6.07;;
21480;SDS011;10902;48.158;8.634;2023-05-20T12:58:57;9.23;;;6.05;;
21480;SDS011;10902;48.158;8.634;2023-05-20T13:01:44;7.53;;;5.47;;
21480;SDS011;10902;48.158;8.634;2023-05-20T13:04:30;6.72;;;5.50;;
21480;SDS011;10902;48.158;8.634;2023-05-20T13:07:15;7.88;;;5.22;;
21480;SDS011;10902;48.158;8.634;2023-05-20T13:10:01;6.40;;;5.50;;
21480;SDS011;10902;48.158;8.634;2023-05-20T13:12:47;8.88;;;5.68;;
21480;SDS011;10902;48.158;8.634;2023-05-20T13:15:33;7.68;;;5.63;;
21480;SDS011;10902;48.158;8.634;2023-05-20T13:18:18;6.97;;;5.00;;
21480;SDS011;10902;48.158;8.634;2023-05-20T13:21:04;6.32;;;5.25;;
21480;SDS011;10902;48.158;8.634;2023-05-20T13:23:50;6.97;;;5.03;;
21480;SDS011;10902;48.158;8.634;2023-05-20T13:26:35;7.25;;;5.30;;
21480;SDS011;10902;48.158;8.634;2023-05-20T13:29:21;7.50;;;4.78;;
21480;SDS011;10902;48.158;8.634;2023-05-20T13:32:06;7.93;;;4.93;;
21480;SDS011;10902;48.158;8.634;2023-05-20T13:34:52;6.72;;;4.78;;
21480;SDS011;10902;48.158;8.634;2023-05-20T13:37:37;7.05;;;5.00;;
21480;SDS011;10902;48.158;8.634;2023-05-20T13:40:23;6.68;;;4.88;;
21480;SDS011;10902;48.158;8.634;2023-05-20T13:43:09;7.28;;;4.43;;
21480;SDS011;10902;48.158;8.634;2023-05-20T13:45:54;5.90;;;4.30;;
21480;SDS011;10902;48.158;8.634;2023-05-20T13:48:40;5.70;;;4.18;;
21480;SDS011;10902;48.158;8.634;2023-05-20T13:51:25;6.20;;;4.60;;
21480;SDS011;10902;48.158;8.634;2023-05-20T13:54:11;7.45;;;4.25;;
21480;SDS011;10902;48.158;8.634;2023-05-20T13:56:57;6.70;;;4.38;;
21480;SDS011;10902;48.158;8.634;2023-05-20T13:59:42;6.07;;;4.20;;
21480;SDS011;10902;48.158;8.634;2023-05-20T14:02:28;6.18;;;5.05;;
21480;SDS011;10902;48.158;8.634;2023-05-20T14:05:14;7.68;;;5.00;;
21480;SDS011;10902;48.158;8.634;2023-05-20T14:08:01;6.10;;;4.50;;
21480;SDS011;10902;48.158;8.634;2023-05-20T14:10:46;6.85;;;4.68;;
21480;SDS011;10902;48.158;8.634;2023-05-20T14:13:32;7.38;;;4.25;;
21480;SDS011;10902;48.158;8.634;2023-05-20T14:16:18;6.35;;;4.70;;
21480;SDS011;10902;48.158;8.634;2023-05-20T14:19:03;6.32;;;4.97;;
21480;SDS011;10902;48.158;8.634;2023-05-20T14:21:49;6.20;;;4.40;;
21480;SDS011;10902;48.158;8.634;2023-05-20T14:24:34;6.85;;;4.80;;
21480;SDS011;10902;48.158;8.634;2023-05-20T14:27:20;6.85;;;4.57;;
21480;SDS011;10902;48.158;8.634;2023-05-20T14:30:06;9.05;;;4.70;;
21480;SDS011;10902;48.158;8.634;2023-05-20T14:32:52;7.05;;;4.53;;
21480;SDS011;10902;48.158;8.634;2023-05-20T14:35:37;7.05;;;4.20;;
21480;SDS011;10902;48.158;8.634;2023-05-20T14:38:23;6.80;;;4.78;;
21480;SDS011;10902;48.158;8.634;2023-05-20T14:41:10;6.97;;;4.20;;
21480;SDS011;10902;48.158;8.634;2023-05-20T14:43:56;5.80;;;4.28;;
21480;SDS011;10902;48.158;8.634;2023-05-20T14:46:41;6.82;;;4.82;;
21480;SDS011;10902;48.158;8.634;2023-05-20T14:49:27;7.47;;;4.80;;
21480;SDS011;10902;48.158;8.634;2023-05-20T14:52:12;6.55;;;4.85;;
21480;SDS011;10902;48.158;8.634;2023-05-20T14:54:58;6.78;;;4.60;;
21480;SDS011;10902;48.158;8.634;2023-05-20T14:57:43;6.38;;;4.97;;
21480;SDS011;10902;48.158;8.634;2023-05-20T15:00:29;7.40;;;4.95;;
21480;SDS011;10902;48.158;8.634;2023-05-20T15:03:16;7.32;;;4.80;;
21480;SDS011;10902;48.158;8.634;2023-05-20T15:06:02;5.90;;;4.20;;
21480;SDS011;10902;48.158;8.634;2023-05-20T15:08:47;6.65;;;4.28;;
21480;SDS011;10902;48.158;8.634;2023-05-20T15:11:33;5.88;;;4.10;;
21480;SDS011;10902;48.158;8.634;2023-05-20T15:14:18;5.90;;;4.20;;
21480;SDS011;10902;48.158;8.634;2023-05-20T15:17:04;7.47;;;4.47;;
21480;SDS011;10902;48.158;8.634;2023-05-20T15:19:50;7.00;;;4.63;;
21480;SDS011;10902;48.158;8.634;2023-05-20T15:22:35;6.97;;;4.05;;
21480;SDS011;10902;48.158;8.634;2023-05-20T15:25:21;6.40;;;4.10;;
21480;SDS011;10902;48.158;8.634;2023-05-20T15:28:06;6.57;;;4.00;;
21480;SDS011;10902;48.158;8.634;2023-05-20T15:30:55;6.47;;;4.50;;
21480;SDS011;10902;48.158;8.634;2023-05-20T15:33:41;4.90;;;3.72;;
21480;SDS011;10902;48.158;8.634;2023-05-20T15:36:26;6.93;;;3.60;;
21480;SDS011;10902;48.158;8.634;2023-05-20T15:39:12;5.80;;;3.67;;
21480;SDS011;10902;48.158;8.634;2023-05-20T15:42:00;6.53;;;3.75;;
21480;SDS011;10902;48.158;8.634;2023-05-20T15:44:47;6.90;;;3.92;;
21480;SDS011;10902;48.158;8.634;2023-05-20T15:47:32;7.03;;;4.10;;
21480;SDS011;10902;48.158;8.634;2023-05-20T15:50:18;4.88;;;3.45;;
21480;SDS011;10902;48.158;8.634;2023-05-20T15:53:07;6.35;;;3.65;;
21480;SDS011;10902;48.158;8.634;2023-05-20T15:55:53;6.43;;;3.80;;
21480;SDS011;10902;48.158;8.634;2023-05-20T15:58:39;6.18;;;4.32;;
21480;SDS011;10902;48.158;8.634;2023-05-20T16:01:25;6.57;;;4.35;;
21480;SDS011;10902;48.158;8.634;2023-05-20T16:04:12;5.68;;;3.83;;
21480;SDS011;10902;48.158;8.634;2023-05-20T16:06:57;6.85;;;3.67;;
21480;SDS011;10902;48.158;8.634;2023-05-20T16:09:43;5.43;;;4.05;;
21480;SDS011;10902;48.158;8.634;2023-05-20T16:12:29;5.43;;;4.20;;
21480;SDS011;10902;48.158;8.634;2023-05-20T16:15:14;5.90;;;3.53;;
21480;SDS011;10902;48.158;8.634;2023-05-20T16:18:00;7.53;;;3.40;;
21480;SDS011;10902;48.158;8.634;2023-05-20T16:20:46;6.38;;;3.55;;
21480;SDS011;10902;48.158;8.634;2023-05-20T16:23:32;5.47;;;3.58;;
21480;SDS011;10902;48.158;8.634;2023-05-20T16:26:17;5.35;;;3.40;;
21480;SDS011;10902;48.158;8.634;2023-05-20T16:29:03;5.78;;;3.30;;
21480;SDS011;10902;48.158;8.634;2023-05-20T16:31:49;4.75;;;3.60;;
21480;SDS011;10902;48.158;8.634;2023-05-20T16:34:35;5.30;;;3.53;;
21480;SDS011;10902;48.158;8.634;2023-05-20T16:37:21;6.13;;;3.63;;
21480;SDS011;10902;48.158;8.634;2023-05-20T16:40:07;6.15;;;3.60;;
21480;SDS011;10902;48.158;8.634;2023-05-20T16:42:53;5.45;;;3.90;;
21480;SDS011;10902;48.158;8.634;2023-05-20T16:45:39;5.10;;;3.22;;
21480;SDS011;10902;48.158;8.634;2023-05-20T16:48:24;6.38;;;3.97;;